sensor_id;sensor_type;location;lat;lon;timestamp;P1;durP1;ratioP1;P2;durP2;ratioP2
58306;SDS011;44116;50.884;4.768;2023-04-09T00:01:00;24.8;;;15.9;;
58306;SDS011;44116;50.884;4.768;2023-04-09T00:03:00;23.2;;;16.3;;
58306;SDS011;44116;50.884;4.768;2023-04-09T00:05:00;24.0;;;16.1;;
58306;SDS011;44116;50.884;4.768;2023-04-09T00:06:59;22.7;;;15.6;;
58306;SDS011;44116;50.884;4.768;2023-04-09T00:08:58;24.1;;;15.4;;
58306;SDS011;44116;50.884;4.768;2023-04-09T00:10:58;24.4;;;16.4;;
58306;SDS011;44116;50.884;4.768;2023-04-09T00:12:57;24.7;;;16.7;;
58306;SDS011;44116;50.884;4.768;2023-04-09T00:14:57;24.5;;;16.6;;
58306;SDS011;44116;50.884;4.768;2023-04-09T00:18:56;22.9;;;15.2;;
58306;SDS011;44116;50.884;4.768;2023-04-09T00:20:56;21.7;;;15.5;;
58306;SDS011;44116;50.884;4.768;2023-04-09T00:22:56;27.1;;;17.2;;
58306;SDS011;44116;50.884;4.768;2023-04-09T00:24:55;23.3;;;15.5;;
58306;SDS011;44116;50.884;4.768;2023-04-09T00:26:55;24.6;;;15.9;;
58306;SDS011;44116;50.884;4.768;2023-04-09T00:28:54;23.8;;;15.8;;
58306;SDS011;44116;50.884;4.768;2023-04-09T00:32:54;24.9;;;16.3;;
58306;SDS011;44116;50.884;4.768;2023-04-09T00:34:53;23.9;;;16.4;;
58306;SDS011;44116;50.884;4.768;2023-04-09T00:36:53;25.1;;;16.9;;
58306;SDS011;44116;50.884;4.768;2023-04-09T00:38:52;26.5;;;17.3;;
58306;SDS011;44116;50.884;4.768;2023-04-09T00:40:52;26.8;;;18.1;;
58306;SDS011;44116;50.884;4.768;2023-04-09T00:42:52;26.0;;;17.3;;
58306;SDS011;44116;50.884;4.768;2023-04-09T00:44:51;28.7;;;18.8;;
58306;SDS011;44116;50.884;4.768;2023-04-09T00:46:51;26.3;;;17.8;;
58306;SDS011;44116;50.884;4.768;2023-04-09T00:48:50;27.2;;;18.4;;
58306;SDS011;44116;50.884;4.768;2023-04-09T00:50:50;30.5;;;19.1;;
58306;SDS011;44116;50.884;4.768;2023-04-09T00:52:50;28.8;;;19.0;;
58306;SDS011;44116;50.884;4.768;2023-04-09T00:54:50;27.7;;;17.6;;
58306;SDS011;44116;50.884;4.768;2023-04-09T00:56:50;29.2;;;19.1;;
58306;SDS011;44116;50.884;4.768;2023-04-09T00:58:49;27.4;;;18.2;;
58306;SDS011;44116;50.884;4.768;2023-04-09T01:00:48;30.0;;;19.8;;
58306;SDS011;44116;50.884;4.768;2023-04-09T01:02:48;30.0;;;19.3;;
58306;SDS011;44116;50.884;4.768;2023-04-09T01:04:48;28.3;;;18.7;;
58306;SDS011;44116;50.884;4.768;2023-04-09T01:06:50;30.9;;;20.7;;
58306;SDS011;44116;50.884;4.768;2023-04-09T01:08:51;30.8;;;20.0;;
58306;SDS011;44116;50.884;4.768;2023-04-09T01:10:53;32.1;;;19.7;;
58306;SDS011;44116;50.884;4.768;2023-04-09T01:12:53;30.5;;;19.5;;
58306;SDS011;44116;50.884;4.768;2023-04-09T01:14:50;30.9;;;20.0;;
58306;SDS011;44116;50.884;4.768;2023-04-09T01:18:51;33.1;;;21.5;;
58306;SDS011;44116;50.884;4.768;2023-04-09T01:20:55;33.7;;;20.8;;
58306;SDS011;44116;50.884;4.768;2023-04-09T01:22:49;34.0;;;21.4;;
58306;SDS011;44116;50.884;4.768;2023-04-09T01:24:55;32.1;;;20.8;;
58306;SDS011;44116;50.884;4.768;2023-04-09T01:26:53;33.8;;;20.7;;
58306;SDS011;44116;50.884;4.768;2023-04-09T01:28:44;32.0;;;20.8;;
58306;SDS011;44116;50.884;4.768;2023-04-09T01:30:44;31.3;;;20.3;;
58306;SDS011;44116;50.884;4.768;2023-04-09T01:32:42;33.8;;;21.3;;
58306;SDS011;44116;50.884;4.768;2023-04-09T01:34:41;35.0;;;21.5;;
58306;SDS011;44116;50.884;4.768;2023-04-09T01:36:44;37.9;;;22.7;;
58306;SDS011;44116;50.884;4.768;2023-04-09T01:38:41;36.5;;;22.1;;
58306;SDS011;44116;50.884;4.768;2023-04-09T01:40:40;35.1;;;21.5;;
58306;SDS011;44116;50.884;4.768;2023-04-09T01:42:40;37.3;;;23.0;;
58306;SDS011;44116;50.884;4.768;2023-04-09T01:44:39;38.8;;;23.6;;
58306;SDS011;44116;50.884;4.768;2023-04-09T01:46:39;38.5;;;22.7;;
58306;SDS011;44116;50.884;4.768;2023-04-09T01:48:39;39.3;;;23.7;;
58306;SDS011;44116;50.884;4.768;2023-04-09T01:50:38;37.2;;;22.9;;
58306;SDS011;44116;50.884;4.768;2023-04-09T01:52:37;42.2;;;25.2;;
58306;SDS011;44116;50.884;4.768;2023-04-09T01:54:37;40.4;;;24.5;;
58306;SDS011;44116;50.884;4.768;2023-04-09T01:56:41;42.1;;;25.8;;
58306;SDS011;44116;50.884;4.768;2023-04-09T01:58:36;42.5;;;25.2;;
58306;SDS011;44116;50.884;4.768;2023-04-09T02:00:38;43.8;;;25.7;;
58306;SDS011;44116;50.884;4.768;2023-04-09T02:02:41;41.9;;;25.4;;
58306;SDS011;44116;50.884;4.768;2023-04-09T02:04:39;41.2;;;26.1;;
58306;SDS011;44116;50.884;4.768;2023-04-09T02:06:38;44.6;;;25.1;;
58306;SDS011;44116;50.884;4.768;2023-04-09T02:08:35;40.0;;;24.1;;
58306;SDS011;44116;50.884;4.768;2023-04-09T02:10:35;40.9;;;25.1;;
58306;SDS011;44116;50.884;4.768;2023-04-09T02:12:36;39.8;;;24.0;;
58306;SDS011;44116;50.884;4.768;2023-04-09T02:14:34;42.7;;;26.6;;
58306;SDS011;44116;50.884;4.768;2023-04-09T02:16:33;40.4;;;24.5;;
58306;SDS011;44116;50.884;4.768;2023-04-09T02:18:32;41.7;;;25.5;;
58306;SDS011;44116;50.884;4.768;2023-04-09T02:20:32;44.0;;;26.4;;
58306;SDS011;44116;50.884;4.768;2023-04-09T02:22:31;40.0;;;24.1;;
58306;SDS011;44116;50.884;4.768;2023-04-09T02:24:31;46.3;;;26.8;;
58306;SDS011;44116;50.884;4.768;2023-04-09T02:26:30;45.2;;;28.1;;
58306;SDS011;44116;50.884;4.768;2023-04-09T02:28:30;47.7;;;28.5;;
58306;SDS011;44116;50.884;4.768;2023-04-09T02:30:30;50.3;;;30.3;;
58306;SDS011;44116;50.884;4.768;2023-04-09T02:32:29;54.9;;;32.1;;
58306;SDS011;44116;50.884;4.768;2023-04-09T02:34:29;56.6;;;34.2;;
58306;SDS011;44116;50.884;4.768;2023-04-09T02:36:28;54.3;;;32.4;;
58306;SDS011;44116;50.884;4.768;2023-04-09T02:38:28;57.3;;;32.9;;
58306;SDS011;44116;50.884;4.768;2023-04-09T02:40:27;53.6;;;32.4;;
58306;SDS011;44116;50.884;4.768;2023-04-09T02:42:27;53.1;;;31.4;;
58306;SDS011;44116;50.884;4.768;2023-04-09T02:44:27;52.1;;;30.6;;
58306;SDS011;44116;50.884;4.768;2023-04-09T02:46:26;53.1;;;32.5;;
58306;SDS011;44116;50.884;4.768;2023-04-09T02:48:26;58.1;;;33.8;;
58306;SDS011;44116;50.884;4.768;2023-04-09T02:50:26;56.0;;;34.4;;
58306;SDS011;44116;50.884;4.768;2023-04-09T02:52:25;58.8;;;34.2;;
58306;SDS011;44116;50.884;4.768;2023-04-09T02:54:25;60.1;;;35.0;;
58306;SDS011;44116;50.884;4.768;2023-04-09T02:56:24;56.3;;;34.1;;
58306;SDS011;44116;50.884;4.768;2023-04-09T02:58:24;57.6;;;33.9;;
58306;SDS011;44116;50.884;4.768;2023-04-09T03:00:24;54.9;;;33.5;;
58306;SDS011;44116;50.884;4.768;2023-04-09T03:02:24;55.1;;;33.7;;
58306;SDS011;44116;50.884;4.768;2023-04-09T03:04:23;56.4;;;33.4;;
58306;SDS011;44116;50.884;4.768;2023-04-09T03:06:22;54.7;;;32.9;;
58306;SDS011;44116;50.884;4.768;2023-04-09T03:10:22;59.6;;;34.4;;
58306;SDS011;44116;50.884;4.768;2023-04-09T03:12:21;56.1;;;33.2;;
58306;SDS011;44116;50.884;4.768;2023-04-09T03:14:21;55.5;;;33.9;;
58306;SDS011;44116;50.884;4.768;2023-04-09T03:16:23;54.4;;;32.1;;
58306;SDS011;44116;50.884;4.768;2023-04-09T03:18:20;55.2;;;33.0;;
58306;SDS011;44116;50.884;4.768;2023-04-09T03:24:19;60.5;;;34.6;;
58306;SDS011;44116;50.884;4.768;2023-04-09T03:26:18;56.1;;;33.8;;
58306;SDS011;44116;50.884;4.768;2023-04-09T03:28:18;56.0;;;34.7;;
58306;SDS011;44116;50.884;4.768;2023-04-09T03:30:18;57.2;;;33.7;;
58306;SDS011;44116;50.884;4.768;2023-04-09T03:32:17;59.0;;;34.4;;
58306;SDS011;44116;50.884;4.768;2023-04-09T03:34:17;60.3;;;35.8;;
58306;SDS011;44116;50.884;4.768;2023-04-09T03:36:17;56.1;;;33.6;;
58306;SDS011;44116;50.884;4.768;2023-04-09T03:38:16;55.4;;;32.3;;
58306;SDS011;44116;50.884;4.768;2023-04-09T03:40:16;53.8;;;32.7;;
58306;SDS011;44116;50.884;4.768;2023-04-09T03:42:15;60.8;;;35.0;;
58306;SDS011;44116;50.884;4.768;2023-04-09T03:44:15;56.2;;;33.3;;
58306;SDS011;44116;50.884;4.768;2023-04-09T03:46:15;57.2;;;32.7;;
58306;SDS011;44116;50.884;4.768;2023-04-09T03:48:14;56.3;;;33.0;;
58306;SDS011;44116;50.884;4.768;2023-04-09T03:50:14;65.3;;;37.7;;
58306;SDS011;44116;50.884;4.768;2023-04-09T03:52:13;56.3;;;32.9;;
58306;SDS011;44116;50.884;4.768;2023-04-09T03:54:13;61.9;;;34.1;;
58306;SDS011;44116;50.884;4.768;2023-04-09T03:56:12;63.4;;;36.0;;
58306;SDS011;44116;50.884;4.768;2023-04-09T03:58:12;61.1;;;35.1;;
58306;SDS011;44116;50.884;4.768;2023-04-09T04:00:12;55.1;;;32.6;;
58306;SDS011;44116;50.884;4.768;2023-04-09T04:02:11;60.2;;;35.8;;
58306;SDS011;44116;50.884;4.768;2023-04-09T04:04:11;58.6;;;33.6;;
58306;SDS011;44116;50.884;4.768;2023-04-09T04:06:11;59.9;;;35.2;;
58306;SDS011;44116;50.884;4.768;2023-04-09T04:08:10;61.4;;;36.1;;
58306;SDS011;44116;50.884;4.768;2023-04-09T04:10:10;62.0;;;35.2;;
58306;SDS011;44116;50.884;4.768;2023-04-09T04:12:09;60.4;;;34.8;;
58306;SDS011;44116;50.884;4.768;2023-04-09T04:14:09;59.8;;;34.1;;
58306;SDS011;44116;50.884;4.768;2023-04-09T04:16:09;57.2;;;34.2;;
58306;SDS011;44116;50.884;4.768;2023-04-09T04:18:08;56.3;;;33.3;;
58306;SDS011;44116;50.884;4.768;2023-04-09T04:20:08;59.1;;;34.2;;
58306;SDS011;44116;50.884;4.768;2023-04-09T04:22:07;63.4;;;36.6;;
58306;SDS011;44116;50.884;4.768;2023-04-09T04:24:07;63.5;;;36.5;;
58306;SDS011;44116;50.884;4.768;2023-04-09T04:26:07;67.8;;;37.4;;
58306;SDS011;44116;50.884;4.768;2023-04-09T04:28:07;64.0;;;36.1;;
58306;SDS011;44116;50.884;4.768;2023-04-09T04:30:06;63.0;;;35.9;;
58306;SDS011;44116;50.884;4.768;2023-04-09T04:32:05;61.4;;;34.6;;
58306;SDS011;44116;50.884;4.768;2023-04-09T04:34:05;62.5;;;37.1;;
58306;SDS011;44116;50.884;4.768;2023-04-09T04:36:05;65.9;;;38.0;;
58306;SDS011;44116;50.884;4.768;2023-04-09T04:38:04;64.1;;;37.2;;
58306;SDS011;44116;50.884;4.768;2023-04-09T04:40:05;64.1;;;36.2;;
58306;SDS011;44116;50.884;4.768;2023-04-09T04:42:03;62.6;;;36.1;;
58306;SDS011;44116;50.884;4.768;2023-04-09T04:44:03;63.0;;;35.8;;
58306;SDS011;44116;50.884;4.768;2023-04-09T04:46:02;61.3;;;36.1;;
58306;SDS011;44116;50.884;4.768;2023-04-09T04:48:02;62.3;;;35.5;;
58306;SDS011;44116;50.884;4.768;2023-04-09T04:50:01;62.4;;;36.5;;
58306;SDS011;44116;50.884;4.768;2023-04-09T04:52:01;63.7;;;36.2;;
58306;SDS011;44116;50.884;4.768;2023-04-09T04:54:01;66.8;;;37.1;;
58306;SDS011;44116;50.884;4.768;2023-04-09T04:56:00;61.4;;;35.4;;
58306;SDS011;44116;50.884;4.768;2023-04-09T04:58:00;63.0;;;36.6;;
58306;SDS011;44116;50.884;4.768;2023-04-09T04:59:59;62.5;;;36.3;;
58306;SDS011;44116;50.884;4.768;2023-04-09T05:01:59;57.5;;;33.3;;
58306;SDS011;44116;50.884;4.768;2023-04-09T05:03:58;64.5;;;35.7;;
58306;SDS011;44116;50.884;4.768;2023-04-09T05:05:58;63.4;;;35.5;;
58306;SDS011;44116;50.884;4.768;2023-04-09T05:07:58;61.8;;;36.1;;
58306;SDS011;44116;50.884;4.768;2023-04-09T05:09:57;62.3;;;36.6;;
58306;SDS011;44116;50.884;4.768;2023-04-09T05:11:57;60.5;;;35.4;;
58306;SDS011;44116;50.884;4.768;2023-04-09T05:13:57;63.9;;;36.4;;
58306;SDS011;44116;50.884;4.768;2023-04-09T05:15:56;62.6;;;36.5;;
58306;SDS011;44116;50.884;4.768;2023-04-09T05:17:56;61.3;;;34.8;;
58306;SDS011;44116;50.884;4.768;2023-04-09T05:19:55;59.8;;;35.4;;
58306;SDS011;44116;50.884;4.768;2023-04-09T05:21:55;59.1;;;34.2;;
58306;SDS011;44116;50.884;4.768;2023-04-09T05:23:54;64.0;;;35.3;;
58306;SDS011;44116;50.884;4.768;2023-04-09T05:25:54;62.2;;;35.2;;
58306;SDS011;44116;50.884;4.768;2023-04-09T05:27:54;62.4;;;36.1;;
58306;SDS011;44116;50.884;4.768;2023-04-09T05:29:53;62.7;;;36.9;;
58306;SDS011;44116;50.884;4.768;2023-04-09T05:31:53;61.9;;;34.8;;
58306;SDS011;44116;50.884;4.768;2023-04-09T05:33:52;61.7;;;36.4;;
58306;SDS011;44116;50.884;4.768;2023-04-09T05:35:52;62.0;;;35.0;;
58306;SDS011;44116;50.884;4.768;2023-04-09T05:37:52;63.9;;;37.1;;
58306;SDS011;44116;50.884;4.768;2023-04-09T05:39:51;61.4;;;34.9;;
58306;SDS011;44116;50.884;4.768;2023-04-09T05:41:51;62.6;;;36.7;;
58306;SDS011;44116;50.884;4.768;2023-04-09T05:43:50;58.6;;;33.5;;
58306;SDS011;44116;50.884;4.768;2023-04-09T05:45:50;62.8;;;36.3;;
58306;SDS011;44116;50.884;4.768;2023-04-09T05:47:49;63.1;;;35.9;;
58306;SDS011;44116;50.884;4.768;2023-04-09T05:49:49;68.8;;;38.3;;
58306;SDS011;44116;50.884;4.768;2023-04-09T05:51:49;62.9;;;37.0;;
58306;SDS011;44116;50.884;4.768;2023-04-09T05:53:48;62.7;;;36.3;;
58306;SDS011;44116;50.884;4.768;2023-04-09T05:55:48;63.4;;;36.8;;
58306;SDS011;44116;50.884;4.768;2023-04-09T05:57:47;64.6;;;37.9;;
58306;SDS011;44116;50.884;4.768;2023-04-09T05:59:47;59.7;;;36.0;;
58306;SDS011;44116;50.884;4.768;2023-04-09T06:01:47;60.2;;;35.6;;
58306;SDS011;44116;50.884;4.768;2023-04-09T06:03:46;60.4;;;35.9;;
58306;SDS011;44116;50.884;4.768;2023-04-09T06:05:46;63.0;;;38.0;;
58306;SDS011;44116;50.884;4.768;2023-04-09T06:07:45;64.6;;;37.8;;
58306;SDS011;44116;50.884;4.768;2023-04-09T06:09:45;65.1;;;38.3;;
58306;SDS011;44116;50.884;4.768;2023-04-09T06:11:45;59.0;;;34.9;;
58306;SDS011;44116;50.884;4.768;2023-04-09T06:13:44;62.6;;;35.2;;
58306;SDS011;44116;50.884;4.768;2023-04-09T06:15:44;62.4;;;36.8;;
58306;SDS011;44116;50.884;4.768;2023-04-09T06:17:43;66.2;;;36.7;;
58306;SDS011;44116;50.884;4.768;2023-04-09T06:19:43;58.5;;;34.8;;
58306;SDS011;44116;50.884;4.768;2023-04-09T06:21:43;59.9;;;35.9;;
58306;SDS011;44116;50.884;4.768;2023-04-09T06:23:42;62.9;;;35.7;;
58306;SDS011;44116;50.884;4.768;2023-04-09T06:25:42;57.6;;;34.6;;
58306;SDS011;44116;50.884;4.768;2023-04-09T06:27:41;63.6;;;36.1;;
58306;SDS011;44116;50.884;4.768;2023-04-09T06:29:41;54.6;;;32.7;;
58306;SDS011;44116;50.884;4.768;2023-04-09T06:31:41;56.6;;;34.2;;
58306;SDS011;44116;50.884;4.768;2023-04-09T06:33:40;56.8;;;33.8;;
58306;SDS011;44116;50.884;4.768;2023-04-09T06:35:40;55.4;;;32.8;;
58306;SDS011;44116;50.884;4.768;2023-04-09T06:37:40;59.0;;;34.2;;
58306;SDS011;44116;50.884;4.768;2023-04-09T06:39:39;51.0;;;31.6;;
58306;SDS011;44116;50.884;4.768;2023-04-09T06:41:39;56.5;;;33.2;;
58306;SDS011;44116;50.884;4.768;2023-04-09T06:43:38;56.8;;;33.1;;
58306;SDS011;44116;50.884;4.768;2023-04-09T06:45:38;56.5;;;33.7;;
58306;SDS011;44116;50.884;4.768;2023-04-09T06:47:38;57.3;;;31.8;;
58306;SDS011;44116;50.884;4.768;2023-04-09T06:49:37;52.8;;;32.4;;
58306;SDS011;44116;50.884;4.768;2023-04-09T06:51:37;58.1;;;33.7;;
58306;SDS011;44116;50.884;4.768;2023-04-09T06:53:37;54.7;;;32.5;;
58306;SDS011;44116;50.884;4.768;2023-04-09T06:55:36;50.2;;;30.1;;
58306;SDS011;44116;50.884;4.768;2023-04-09T06:57:36;56.3;;;32.2;;
58306;SDS011;44116;50.884;4.768;2023-04-09T06:59:35;62.9;;;36.8;;
58306;SDS011;44116;50.884;4.768;2023-04-09T07:01:35;80.5;;;47.9;;
58306;SDS011;44116;50.884;4.768;2023-04-09T07:03:35;92.1;;;53.7;;
58306;SDS011;44116;50.884;4.768;2023-04-09T07:05:34;65.6;;;40.9;;
58306;SDS011;44116;50.884;4.768;2023-04-09T07:07:34;63.8;;;38.3;;
58306;SDS011;44116;50.884;4.768;2023-04-09T07:09:33;56.5;;;33.8;;
58306;SDS011;44116;50.884;4.768;2023-04-09T07:11:33;57.4;;;33.6;;
58306;SDS011;44116;50.884;4.768;2023-04-09T07:13:33;56.5;;;33.4;;
58306;SDS011;44116;50.884;4.768;2023-04-09T07:15:32;61.5;;;36.8;;
58306;SDS011;44116;50.884;4.768;2023-04-09T07:17:33;57.6;;;35.4;;
58306;SDS011;44116;50.884;4.768;2023-04-09T07:19:32;56.3;;;33.6;;
58306;SDS011;44116;50.884;4.768;2023-04-09T07:21:31;60.1;;;35.7;;
58306;SDS011;44116;50.884;4.768;2023-04-09T07:23:33;59.4;;;36.8;;
58306;SDS011;44116;50.884;4.768;2023-04-09T07:25:31;63.0;;;39.8;;
58306;SDS011;44116;50.884;4.768;2023-04-09T07:27:30;55.0;;;33.9;;
58306;SDS011;44116;50.884;4.768;2023-04-09T07:29:30;54.4;;;34.1;;
58306;SDS011;44116;50.884;4.768;2023-04-09T07:31:29;64.9;;;39.4;;
58306;SDS011;44116;50.884;4.768;2023-04-09T07:33:30;58.5;;;35.0;;
58306;SDS011;44116;50.884;4.768;2023-04-09T07:35:29;60.9;;;33.7;;
58306;SDS011;44116;50.884;4.768;2023-04-09T07:37:28;56.1;;;33.5;;
58306;SDS011;44116;50.884;4.768;2023-04-09T07:39:28;59.3;;;33.4;;
58306;SDS011;44116;50.884;4.768;2023-04-09T07:41:28;56.0;;;32.8;;
58306;SDS011;44116;50.884;4.768;2023-04-09T07:43:27;57.2;;;34.1;;
58306;SDS011;44116;50.884;4.768;2023-04-09T07:45:27;57.1;;;32.1;;
58306;SDS011;44116;50.884;4.768;2023-04-09T07:47:27;59.0;;;34.8;;
58306;SDS011;44116;50.884;4.768;2023-04-09T07:49:26;73.2;;;35.7;;
58306;SDS011;44116;50.884;4.768;2023-04-09T07:51:26;62.3;;;35.1;;
58306;SDS011;44116;50.884;4.768;2023-04-09T07:53:25;59.6;;;34.7;;
58306;SDS011;44116;50.884;4.768;2023-04-09T07:55:25;60.4;;;35.0;;
58306;SDS011;44116;50.884;4.768;2023-04-09T07:57:25;56.0;;;33.6;;
58306;SDS011;44116;50.884;4.768;2023-04-09T07:59:25;57.9;;;33.3;;
58306;SDS011;44116;50.884;4.768;2023-04-09T08:01:24;53.9;;;33.0;;
58306;SDS011;44116;50.884;4.768;2023-04-09T08:03:24;57.7;;;34.8;;
58306;SDS011;44116;50.884;4.768;2023-04-09T08:05:24;59.9;;;35.0;;
58306;SDS011;44116;50.884;4.768;2023-04-09T08:07:23;58.1;;;34.9;;
58306;SDS011;44116;50.884;4.768;2023-04-09T08:09:23;76.3;;;52.6;;
58306;SDS011;44116;50.884;4.768;2023-04-09T08:11:23;64.3;;;40.1;;
58306;SDS011;44116;50.884;4.768;2023-04-09T08:13:22;54.6;;;32.2;;
58306;SDS011;44116;50.884;4.768;2023-04-09T08:15:22;53.6;;;31.8;;
58306;SDS011;44116;50.884;4.768;2023-04-09T08:17:22;54.7;;;35.5;;
58306;SDS011;44116;50.884;4.768;2023-04-09T08:19:21;60.3;;;39.9;;
58306;SDS011;44116;50.884;4.768;2023-04-09T08:21:22;66.7;;;44.3;;
58306;SDS011;44116;50.884;4.768;2023-04-09T08:23:21;59.2;;;34.6;;
58306;SDS011;44116;50.884;4.768;2023-04-09T08:25:20;56.1;;;31.1;;
58306;SDS011;44116;50.884;4.768;2023-04-09T08:27:20;59.1;;;38.3;;
58306;SDS011;44116;50.884;4.768;2023-04-09T08:29:20;66.7;;;36.6;;
58306;SDS011;44116;50.884;4.768;2023-04-09T08:31:19;53.1;;;31.9;;
58306;SDS011;44116;50.884;4.768;2023-04-09T08:33:19;46.6;;;29.9;;
58306;SDS011;44116;50.884;4.768;2023-04-09T08:35:19;50.0;;;30.4;;
58306;SDS011;44116;50.884;4.768;2023-04-09T08:37:19;53.1;;;31.1;;
58306;SDS011;44116;50.884;4.768;2023-04-09T08:39:18;51.0;;;29.7;;
58306;SDS011;44116;50.884;4.768;2023-04-09T08:41:19;48.0;;;30.6;;
58306;SDS011;44116;50.884;4.768;2023-04-09T08:43:18;49.5;;;30.8;;
58306;SDS011;44116;50.884;4.768;2023-04-09T08:45:17;49.5;;;30.4;;
58306;SDS011;44116;50.884;4.768;2023-04-09T08:47:18;48.2;;;29.5;;
58306;SDS011;44116;50.884;4.768;2023-04-09T08:49:17;48.0;;;30.8;;
58306;SDS011;44116;50.884;4.768;2023-04-09T08:51:18;48.3;;;29.5;;
58306;SDS011;44116;50.884;4.768;2023-04-09T08:53:16;50.7;;;30.9;;
58306;SDS011;44116;50.884;4.768;2023-04-09T08:57:15;47.8;;;29.5;;
58306;SDS011;44116;50.884;4.768;2023-04-09T08:59:16;45.5;;;28.1;;
58306;SDS011;44116;50.884;4.768;2023-04-09T09:01:19;46.7;;;28.9;;
58306;SDS011;44116;50.884;4.768;2023-04-09T09:03:14;48.3;;;29.9;;
58306;SDS011;44116;50.884;4.768;2023-04-09T09:05:14;45.3;;;27.6;;
58306;SDS011;44116;50.884;4.768;2023-04-09T09:07:14;41.8;;;26.9;;
58306;SDS011;44116;50.884;4.768;2023-04-09T09:09:15;46.3;;;28.7;;
58306;SDS011;44116;50.884;4.768;2023-04-09T09:11:24;44.5;;;28.1;;
58306;SDS011;44116;50.884;4.768;2023-04-09T09:15:24;45.1;;;29.6;;
58306;SDS011;44116;50.884;4.768;2023-04-09T09:17:12;45.5;;;28.7;;
58306;SDS011;44116;50.884;4.768;2023-04-09T09:19:27;45.1;;;28.6;;
58306;SDS011;44116;50.884;4.768;2023-04-09T09:21:12;44.8;;;28.7;;
58306;SDS011;44116;50.884;4.768;2023-04-09T09:23:11;47.1;;;28.0;;
58306;SDS011;44116;50.884;4.768;2023-04-09T09:25:11;42.7;;;27.6;;
58306;SDS011;44116;50.884;4.768;2023-04-09T09:29:11;41.9;;;27.4;;
58306;SDS011;44116;50.884;4.768;2023-04-09T09:31:11;43.7;;;26.2;;
58306;SDS011;44116;50.884;4.768;2023-04-09T09:33:10;41.2;;;27.2;;
58306;SDS011;44116;50.884;4.768;2023-04-09T09:35:10;40.9;;;25.7;;
58306;SDS011;44116;50.884;4.768;2023-04-09T09:37:24;41.0;;;26.1;;
58306;SDS011;44116;50.884;4.768;2023-04-09T09:39:10;41.9;;;27.9;;
58306;SDS011;44116;50.884;4.768;2023-04-09T09:41:15;41.8;;;27.1;;
58306;SDS011;44116;50.884;4.768;2023-04-09T09:43:09;39.0;;;26.4;;
58306;SDS011;44116;50.884;4.768;2023-04-09T09:45:16;38.4;;;24.6;;
58306;SDS011;44116;50.884;4.768;2023-04-09T09:47:10;42.9;;;28.0;;
58306;SDS011;44116;50.884;4.768;2023-04-09T09:49:08;40.6;;;25.9;;
58306;SDS011;44116;50.884;4.768;2023-04-09T09:51:09;39.5;;;25.5;;
58306;SDS011;44116;50.884;4.768;2023-04-09T09:53:09;38.0;;;24.9;;
58306;SDS011;44116;50.884;4.768;2023-04-09T09:55:08;37.8;;;24.6;;
58306;SDS011;44116;50.884;4.768;2023-04-09T09:57:08;38.8;;;25.8;;
58306;SDS011;44116;50.884;4.768;2023-04-09T09:59:12;41.1;;;26.4;;
58306;SDS011;44116;50.884;4.768;2023-04-09T10:01:07;38.5;;;25.0;;
58306;SDS011;44116;50.884;4.768;2023-04-09T10:03:11;40.4;;;25.8;;
58306;SDS011;44116;50.884;4.768;2023-04-09T10:05:06;38.9;;;25.3;;
58306;SDS011;44116;50.884;4.768;2023-04-09T10:07:06;37.7;;;25.9;;
58306;SDS011;44116;50.884;4.768;2023-04-09T10:09:05;42.3;;;26.6;;
58306;SDS011;44116;50.884;4.768;2023-04-09T10:11:05;50.5;;;36.7;;
58306;SDS011;44116;50.884;4.768;2023-04-09T10:13:05;39.3;;;26.2;;
58306;SDS011;44116;50.884;4.768;2023-04-09T10:15:05;41.7;;;26.6;;
58306;SDS011;44116;50.884;4.768;2023-04-09T10:17:05;37.0;;;23.9;;
58306;SDS011;44116;50.884;4.768;2023-04-09T10:19:04;34.8;;;24.1;;
58306;SDS011;44116;50.884;4.768;2023-04-09T10:21:15;61.0;;;48.3;;
58306;SDS011;44116;50.884;4.768;2023-04-09T10:23:10;39.0;;;25.7;;
58306;SDS011;44116;50.884;4.768;2023-04-09T10:25:04;39.4;;;24.7;;
58306;SDS011;44116;50.884;4.768;2023-04-09T10:27:11;38.4;;;26.2;;
58306;SDS011;44116;50.884;4.768;2023-04-09T10:29:04;40.1;;;24.7;;
58306;SDS011;44116;50.884;4.768;2023-04-09T10:31:03;37.5;;;24.4;;
58306;SDS011;44116;50.884;4.768;2023-04-09T10:33:10;37.0;;;24.0;;
58306;SDS011;44116;50.884;4.768;2023-04-09T10:35:02;39.7;;;25.2;;
58306;SDS011;44116;50.884;4.768;2023-04-09T10:39:10;41.8;;;26.4;;
58306;SDS011;44116;50.884;4.768;2023-04-09T10:41:13;41.4;;;28.2;;
58306;SDS011;44116;50.884;4.768;2023-04-09T10:43:02;35.9;;;24.8;;
58306;SDS011;44116;50.884;4.768;2023-04-09T10:45:06;39.4;;;25.0;;
58306;SDS011;44116;50.884;4.768;2023-04-09T10:47:02;39.5;;;27.4;;
58306;SDS011;44116;50.884;4.768;2023-04-09T10:49:11;39.2;;;25.9;;
58306;SDS011;44116;50.884;4.768;2023-04-09T10:51:01;35.2;;;23.6;;
58306;SDS011;44116;50.884;4.768;2023-04-09T10:53:02;35.7;;;24.2;;
58306;SDS011;44116;50.884;4.768;2023-04-09T10:54:59;35.5;;;24.7;;
58306;SDS011;44116;50.884;4.768;2023-04-09T10:57:10;43.6;;;29.0;;
58306;SDS011;44116;50.884;4.768;2023-04-09T10:58:59;51.8;;;40.4;;
58306;SDS011;44116;50.884;4.768;2023-04-09T11:01:00;34.3;;;23.9;;
58306;SDS011;44116;50.884;4.768;2023-04-09T11:03:17;33.9;;;23.5;;
58306;SDS011;44116;50.884;4.768;2023-04-09T11:06:59;34.5;;;23.9;;
58306;SDS011;44116;50.884;4.768;2023-04-09T11:09:00;33.1;;;22.7;;
58306;SDS011;44116;50.884;4.768;2023-04-09T11:10:58;31.7;;;22.4;;
58306;SDS011;44116;50.884;4.768;2023-04-09T11:12:58;34.6;;;23.4;;
58306;SDS011;44116;50.884;4.768;2023-04-09T11:14:57;34.0;;;22.6;;
58306;SDS011;44116;50.884;4.768;2023-04-09T11:16:57;35.4;;;23.4;;
58306;SDS011;44116;50.884;4.768;2023-04-09T11:18:57;32.7;;;22.1;;
58306;SDS011;44116;50.884;4.768;2023-04-09T11:20:58;29.0;;;20.3;;
58306;SDS011;44116;50.884;4.768;2023-04-09T11:22:58;31.8;;;21.3;;
58306;SDS011;44116;50.884;4.768;2023-04-09T11:24:56;29.6;;;21.1;;
58306;SDS011;44116;50.884;4.768;2023-04-09T11:26:56;29.5;;;20.5;;
58306;SDS011;44116;50.884;4.768;2023-04-09T11:28:56;30.0;;;21.6;;
58306;SDS011;44116;50.884;4.768;2023-04-09T11:32:56;29.9;;;20.7;;
58306;SDS011;44116;50.884;4.768;2023-04-09T11:34:55;31.0;;;21.2;;
58306;SDS011;44116;50.884;4.768;2023-04-09T11:36:55;30.5;;;20.5;;
58306;SDS011;44116;50.884;4.768;2023-04-09T11:38:55;27.8;;;19.6;;
58306;SDS011;44116;50.884;4.768;2023-04-09T11:40:56;29.1;;;20.2;;
58306;SDS011;44116;50.884;4.768;2023-04-09T11:42:55;29.4;;;21.0;;
58306;SDS011;44116;50.884;4.768;2023-04-09T11:44:54;28.6;;;19.2;;
58306;SDS011;44116;50.884;4.768;2023-04-09T11:46:54;26.0;;;17.0;;
58306;SDS011;44116;50.884;4.768;2023-04-09T11:48:54;22.2;;;16.1;;
58306;SDS011;44116;50.884;4.768;2023-04-09T11:50:54;24.4;;;16.5;;
58306;SDS011;44116;50.884;4.768;2023-04-09T11:52:54;22.2;;;16.0;;
58306;SDS011;44116;50.884;4.768;2023-04-09T11:54:53;22.7;;;16.1;;
58306;SDS011;44116;50.884;4.768;2023-04-09T11:56:53;25.0;;;16.9;;
58306;SDS011;44116;50.884;4.768;2023-04-09T11:58:53;21.8;;;15.6;;
58306;SDS011;44116;50.884;4.768;2023-04-09T12:00:53;20.9;;;15.8;;
58306;SDS011;44116;50.884;4.768;2023-04-09T12:02:59;19.1;;;14.0;;
58306;SDS011;44116;50.884;4.768;2023-04-09T12:04:53;21.5;;;14.6;;
58306;SDS011;44116;50.884;4.768;2023-04-09T12:06:55;20.5;;;13.7;;
58306;SDS011;44116;50.884;4.768;2023-04-09T12:08:53;19.1;;;12.7;;
58306;SDS011;44116;50.884;4.768;2023-04-09T12:10:52;19.8;;;14.2;;
58306;SDS011;44116;50.884;4.768;2023-04-09T12:12:52;18.2;;;12.7;;
58306;SDS011;44116;50.884;4.768;2023-04-09T12:14:52;18.0;;;13.0;;
58306;SDS011;44116;50.884;4.768;2023-04-09T12:16:51;20.2;;;14.2;;
58306;SDS011;44116;50.884;4.768;2023-04-09T12:18:51;22.1;;;15.4;;
58306;SDS011;44116;50.884;4.768;2023-04-09T12:20:51;18.9;;;13.3;;
58306;SDS011;44116;50.884;4.768;2023-04-09T12:22:51;21.2;;;14.0;;
58306;SDS011;44116;50.884;4.768;2023-04-09T12:24:51;21.2;;;13.8;;